createdAt,value
2022-08-03T00:00:18.024Z,19.77
2022-08-03T00:02:58.521Z,19.73
2022-08-03T00:05:38.735Z,19.71
2022-08-03T00:08:18.090Z,19.69
2022-08-03T00:10:59.449Z,19.67
2022-08-03T00:13:39.587Z,19.65
2022-08-03T00:16:19.558Z,19.66
2022-08-03T00:19:04.285Z,19.60
2022-08-03T00:21:42.236Z,19.57
2022-08-03T00:24:23.790Z,19.51
2022-08-03T00:27:01.936Z,19.48
2022-08-03T00:29:59.327Z,19.47
2022-08-03T00:32:45.092Z,19.43
2022-08-03T00:35:36.814Z,19.40
2022-08-03T00:38:17.528Z,19.39
2022-08-03T00:41:00.344Z,19.34
2022-08-03T00:43:40.390Z,19.32
2022-08-03T00:46:22.188Z,19.29
2022-08-03T00:49:04.724Z,19.27
2022-08-03T00:51:46.642Z,19.25
2022-08-03T00:54:26.140Z,19.24
2022-08-03T00:57:08.629Z,19.18
2022-08-03T00:59:49.182Z,19.15
2022-08-03T01:02:28.667Z,19.11
2022-08-03T01:05:09.077Z,19.09
2022-08-03T01:08:01.891Z,19.07
2022-08-03T01:10:47.688Z,19.05
2022-08-03T01:14:03.778Z,19.02
2022-08-03T01:16:37.405Z,18.99
2022-08-03T01:19:33.278Z,18.96
2022-08-03T01:22:32.224Z,18.92
2022-08-03T01:25:16.274Z,18.90
2022-08-03T01:28:15.372Z,18.90
2022-08-03T01:30:57.921Z,18.87
2022-08-03T01:33:42.230Z,18.87
2022-08-03T01:36:24.443Z,18.82
2022-08-03T01:39:09.291Z,18.80
2022-08-03T01:41:52.215Z,18.76
2022-08-03T01:44:37.372Z,18.76
2022-08-03T01:47:21.416Z,18.70
2022-08-03T01:50:02.503Z,18.68
2022-08-03T01:52:45.382Z,18.66
2022-08-03T01:55:28.136Z,18.66
2022-08-03T01:58:09.490Z,18.63
2022-08-03T02:00:51.363Z,18.60
2022-08-03T02:03:33.307Z,18.56
2022-08-03T02:07:01.304Z,18.51
2022-08-03T02:09:16.418Z,18.50
2022-08-03T02:11:56.847Z,18.48
2022-08-03T02:14:40.621Z,18.45
2022-08-03T02:17:39.899Z,18.48
2022-08-03T02:20:20.429Z,18.49
2022-08-03T02:23:01.848Z,18.47
2022-08-03T02:25:45.843Z,18.46
2022-08-03T02:28:31.967Z,18.44
2022-08-03T02:31:14.208Z,18.42
2022-08-03T02:33:54.734Z,18.43
2022-08-03T02:36:38.236Z,18.40
2022-08-03T02:39:21.343Z,18.39
2022-08-03T02:42:03.345Z,18.38
2022-08-03T02:44:49.351Z,18.37
2022-08-03T02:47:53.972Z,18.35
2022-08-03T02:50:31.810Z,18.33
2022-08-03T02:53:13.744Z,18.31
2022-08-03T02:55:54.773Z,18.29
2022-08-03T02:58:35.397Z,18.26
2022-08-03T03:01:15.211Z,18.24
2022-08-03T03:03:56.416Z,18.22
2022-08-03T03:06:59.163Z,18.23
2022-08-03T03:09:43.173Z,18.19
2022-08-03T03:12:25.794Z,18.16
2022-08-03T03:15:07.271Z,18.16
2022-08-03T03:17:48.361Z,18.15
2022-08-03T03:20:32.760Z,18.12
2022-08-03T03:23:14.011Z,18.12
2022-08-03T03:25:56.057Z,18.11
2022-08-03T03:28:37.376Z,18.11
2022-08-03T03:31:17.531Z,18.09
2022-08-03T03:33:58.766Z,18.08
2022-08-03T03:36:38.713Z,18.05
2022-08-03T03:39:18.552Z,18.02
2022-08-03T03:41:57.359Z,18.02
2022-08-03T03:44:38.083Z,18.03
2022-08-03T03:47:18.239Z,18.00
2022-08-03T03:50:12.526Z,18.01
2022-08-03T03:52:52.041Z,17.98
2022-08-03T03:55:32.008Z,17.99
2022-08-03T03:58:13.543Z,17.98
2022-08-03T04:00:53.839Z,17.96
2022-08-03T04:03:53.580Z,17.94
2022-08-03T04:06:52.841Z,17.94
2022-08-03T04:09:49.614Z,17.95
2022-08-03T04:12:30.319Z,17.89
2022-08-03T04:15:13.167Z,17.91
2022-08-03T04:17:55.010Z,17.93
2022-08-03T04:20:36.696Z,17.95
2022-08-03T04:23:17.955Z,17.93
2022-08-03T04:25:58.799Z,17.93
2022-08-03T04:28:38.926Z,17.87
2022-08-03T04:31:22.163Z,17.91
2022-08-03T04:34:01.616Z,17.92
2022-08-03T04:36:48.604Z,17.91
2022-08-03T04:39:32.660Z,17.94
2022-08-03T04:42:13.684Z,17.99
2022-08-03T04:44:57.699Z,18.01
2022-08-03T04:47:41.153Z,18.01
2022-08-03T04:50:21.779Z,18.06
2022-08-03T04:53:17.489Z,18.10
2022-08-03T04:56:17.151Z,18.13
2022-08-03T04:58:57.067Z,18.18
2022-08-03T05:01:38.826Z,18.23
2022-08-03T05:04:20.528Z,18.29
2022-08-03T05:07:12.460Z,18.35
2022-08-03T05:10:01.305Z,18.41
2022-08-03T05:12:46.535Z,18.51
2022-08-03T05:15:24.964Z,18.58
2022-08-03T05:18:04.427Z,18.65
2022-08-03T05:20:44.278Z,18.75
2022-08-03T05:23:23.980Z,18.85
2022-08-03T05:26:05.100Z,18.93
2022-08-03T05:28:50.856Z,19.01
2022-08-03T05:31:32.865Z,19.22
2022-08-03T05:34:14.309Z,19.36
2022-08-03T05:36:55.755Z,19.71
2022-08-03T05:39:34.498Z,19.81
2022-08-03T05:42:17.718Z,19.94
2022-08-03T05:45:00.487Z,20.18
2022-08-03T05:47:41.939Z,20.38
2022-08-03T05:50:21.488Z,20.47
2022-08-03T05:53:01.156Z,20.60
2022-08-03T05:55:39.611Z,20.71
2022-08-03T05:58:19.116Z,20.85
2022-08-03T06:00:59.111Z,21.00
2022-08-03T06:03:38.774Z,21.20
2022-08-03T06:06:20.916Z,21.27
2022-08-03T06:09:01.548Z,21.39
2022-08-03T06:11:43.402Z,21.51
2022-08-03T06:14:39.304Z,21.67
2022-08-03T06:17:19.088Z,21.85
2022-08-03T06:20:01.166Z,21.98
2022-08-03T06:22:44.511Z,22.17
2022-08-03T06:25:34.523Z,22.39
2022-08-03T06:31:15.076Z,22.83
2022-08-03T06:34:33.789Z,23.12
2022-08-03T06:36:58.523Z,23.35
2022-08-03T06:39:41.600Z,23.54
2022-08-03T06:42:23.407Z,23.69
2022-08-03T06:45:07.394Z,23.81
2022-08-03T06:47:47.519Z,24.06
2022-08-03T06:50:28.109Z,24.18
2022-08-03T06:53:10.281Z,24.36
2022-08-03T06:55:59.709Z,24.60
2022-08-03T06:58:39.474Z,24.77
2022-08-03T07:01:19.366Z,25.03
2022-08-03T07:04:00.477Z,25.34
2022-08-03T07:06:40.544Z,25.54
2022-08-03T07:09:19.201Z,25.82
2022-08-03T07:12:06.502Z,26.09
2022-08-03T07:14:46.317Z,26.31
2022-08-03T07:17:38.559Z,26.60
2022-08-03T07:20:18.242Z,26.76
2022-08-03T07:22:57.460Z,26.98
2022-08-03T07:25:37.389Z,27.25
2022-08-03T07:28:20.357Z,27.43
2022-08-03T07:31:02.689Z,27.74
2022-08-03T07:33:43.345Z,28.04
2022-08-03T07:36:24.639Z,28.25
2022-08-03T07:39:15.912Z,28.55
2022-08-03T07:42:00.612Z,28.77
2022-08-03T07:44:42.465Z,28.93
2022-08-03T07:47:24.798Z,29.15
2022-08-03T07:50:05.654Z,29.24
2022-08-03T07:52:53.352Z,29.31
2022-08-03T07:55:35.088Z,29.41
2022-08-03T07:58:21.930Z,29.61
2022-08-03T08:01:04.590Z,29.75
2022-08-03T08:03:52.387Z,30.08
2022-08-03T08:06:33.835Z,30.30
2022-08-03T08:09:15.582Z,30.64
2022-08-03T08:11:54.880Z,30.87
2022-08-03T08:14:34.795Z,31.17
2022-08-03T08:17:16.515Z,31.65
2022-08-03T08:20:27.929Z,31.89
2022-08-03T08:23:37.726Z,32.02
2022-08-03T08:29:55.695Z,32.60
2022-08-03T08:32:37.357Z,32.77
2022-08-03T08:35:18.123Z,33.18
2022-08-03T08:38:05.534Z,33.21
2022-08-03T08:40:48.802Z,33.39
2022-08-03T08:43:31.558Z,33.49
2022-08-03T08:46:12.942Z,33.04
2022-08-03T08:49:04.952Z,33.46
2022-08-03T08:51:59.353Z,33.76
2022-08-03T08:54:45.596Z,33.50
2022-08-03T08:57:42.353Z,33.91
2022-08-03T09:00:22.864Z,33.90
2022-08-03T09:03:02.786Z,34.14
2022-08-03T09:05:55.825Z,34.42
2022-08-03T09:08:36.648Z,34.19
2022-08-03T09:11:22.295Z,34.48
2022-08-03T09:14:37.255Z,34.67
2022-08-03T09:17:24.559Z,34.97
2022-08-03T09:20:09.583Z,35.22
2022-08-03T09:22:58.969Z,35.62
2022-08-03T09:25:41.768Z,35.87
2022-08-03T09:28:56.267Z,36.01
2022-08-03T09:31:30.631Z,35.39
2022-08-03T09:34:15.283Z,35.20
2022-08-03T09:36:58.251Z,35.06
2022-08-03T09:39:41.949Z,34.75
2022-08-03T09:42:24.218Z,35.06
2022-08-03T09:45:05.471Z,35.24
2022-08-03T09:47:45.922Z,35.12
2022-08-03T09:50:25.779Z,35.46
2022-08-03T09:53:04.347Z,35.70
2022-08-03T09:56:33.467Z,35.56
2022-08-03T09:58:53.987Z,35.72
2022-08-03T10:01:35.530Z,35.95
2022-08-03T10:04:16.976Z,36.26
2022-08-03T10:07:07.016Z,35.92
2022-08-03T10:09:56.817Z,36.61
2022-08-03T10:12:38.252Z,36.15
2022-08-03T10:16:23.399Z,36.55
2022-08-03T10:18:19.071Z,37.40
2022-08-03T10:21:03.112Z,37.51
2022-08-03T10:23:43.720Z,37.08
2022-08-03T10:26:37.844Z,37.36
2022-08-03T10:29:24.597Z,37.60
2022-08-03T10:32:06.474Z,37.96
2022-08-03T10:34:48.571Z,37.71
2022-08-03T10:37:29.564Z,37.91
2022-08-03T10:40:16.138Z,37.66
2022-08-03T10:43:21.760Z,36.84
2022-08-03T10:46:03.455Z,36.96
2022-08-03T10:48:43.439Z,37.16
2022-08-03T10:51:24.335Z,37.10
2022-08-03T10:54:04.633Z,36.17
2022-08-03T10:57:13.485Z,36.43
2022-08-03T11:00:04.025Z,36.69
2022-08-03T11:03:06.471Z,37.36
2022-08-03T11:05:47.286Z,37.58
2022-08-03T11:08:32.007Z,37.37
2022-08-03T11:11:28.462Z,37.49
2022-08-03T11:14:10.163Z,38.03
2022-08-03T11:16:53.080Z,38.34
2022-08-03T11:19:57.538Z,38.29
2022-08-03T11:22:50.913Z,38.50
2022-08-03T11:25:34.832Z,38.06
2022-08-03T11:28:30.918Z,38.05
2022-08-03T11:31:56.762Z,38.37
2022-08-03T11:35:10.789Z,38.48
2022-08-03T11:38:11.885Z,38.97
2022-08-03T11:40:52.806Z,38.81
2022-08-03T11:43:47.497Z,38.83
2022-08-03T11:46:29.822Z,38.24
2022-08-03T11:49:12.585Z,38.21
2022-08-03T11:51:55.407Z,38.41
2022-08-03T11:54:37.566Z,38.54
2022-08-03T11:59:11.310Z,38.69
2022-08-03T12:00:35.563Z,38.77
2022-08-03T12:03:17.061Z,39.00
2022-08-03T12:05:56.550Z,38.88
2022-08-03T12:08:36.147Z,39.01
2022-08-03T12:11:18.885Z,39.25
2022-08-03T12:14:49.496Z,39.56
2022-08-03T12:16:59.646Z,39.38
2022-08-03T12:19:44.542Z,39.81
2022-08-03T12:22:33.464Z,40.02
2022-08-03T12:25:38.535Z,39.85
2022-08-03T12:28:36.266Z,39.78
2022-08-03T12:31:18.544Z,39.66
2022-08-03T12:34:02.797Z,39.34
2022-08-03T12:36:53.135Z,39.91
2022-08-03T12:39:33.249Z,40.08
2022-08-03T12:42:13.077Z,39.64
2022-08-03T12:44:56.379Z,39.44
2022-08-03T12:47:57.037Z,39.56
2022-08-03T12:50:37.699Z,39.83
2022-08-03T12:53:29.913Z,39.42
2022-08-03T12:57:00.325Z,40.05
2022-08-03T12:59:45.127Z,39.79
2022-08-03T13:02:35.128Z,39.94
2022-08-03T13:05:16.756Z,40.09
2022-08-03T13:07:56.331Z,40.21
2022-08-03T13:10:35.742Z,40.16
2022-08-03T13:13:20.687Z,40.24
2022-08-03T13:16:00.142Z,40.21
2022-08-03T13:18:39.931Z,40.29
2022-08-03T13:21:22.056Z,39.98
2022-08-03T13:24:05.005Z,40.17
2022-08-03T13:26:42.964Z,40.15
2022-08-03T13:29:34.227Z,39.75
2022-08-03T13:32:14.934Z,39.81
2022-08-03T13:35:16.475Z,39.60
2022-08-03T13:37:55.985Z,39.64
2022-08-03T13:40:38.382Z,39.25
2022-08-03T13:43:35.918Z,38.85
2022-08-03T13:46:17.648Z,38.61
2022-08-03T13:49:00.196Z,38.16
2022-08-03T13:51:39.904Z,38.37
2022-08-03T13:54:21.447Z,37.83
2022-08-03T13:58:18.928Z,38.06
2022-08-03T14:00:28.072Z,37.74
2022-08-03T14:03:14.267Z,37.66
2022-08-03T14:05:54.692Z,37.50
2022-08-03T14:08:36.543Z,37.30
2022-08-03T14:11:18.304Z,36.73
2022-08-03T14:14:00.853Z,36.41
2022-08-03T14:16:40.406Z,35.96
2022-08-03T14:19:25.515Z,35.76
2022-08-03T14:22:06.910Z,35.56
2022-08-03T14:24:47.719Z,35.14
2022-08-03T14:27:30.120Z,34.96
2022-08-03T14:30:13.305Z,34.80
2022-08-03T14:33:05.389Z,34.61
2022-08-03T14:35:45.265Z,34.41
2022-08-03T14:38:24.992Z,34.07
2022-08-03T14:41:06.734Z,33.97
2022-08-03T14:44:09.012Z,33.77
2022-08-03T14:46:49.033Z,33.54
2022-08-03T14:50:36.250Z,33.44
2022-08-03T14:52:30.449Z,33.34
2022-08-03T14:55:11.857Z,33.11
2022-08-03T14:57:53.234Z,32.96
2022-08-03T15:00:46.996Z,33.00
2022-08-03T15:03:27.766Z,32.96
2022-08-03T15:06:08.961Z,32.81
2022-08-03T15:09:22.543Z,32.85
2022-08-03T15:12:03.000Z,32.94
2022-08-03T15:14:42.832Z,32.83
2022-08-03T15:17:24.617Z,32.84
2022-08-03T15:20:27.810Z,32.76
2022-08-03T15:23:04.766Z,32.72
2022-08-03T15:26:29.636Z,32.58
2022-08-03T15:28:47.092Z,32.57
2022-08-03T15:31:26.693Z,32.46
2022-08-03T15:34:06.385Z,32.42
2022-08-03T15:36:59.551Z,32.48
2022-08-03T15:39:59.089Z,32.47
2022-08-03T15:42:39.891Z,32.42
2022-08-03T15:45:21.804Z,32.38
2022-08-03T15:48:02.685Z,32.36
2022-08-03T15:50:55.985Z,32.32
2022-08-03T15:53:34.807Z,32.19
2022-08-03T15:56:18.947Z,32.20
2022-08-03T15:59:12.045Z,32.18
2022-08-03T16:02:11.024Z,32.07
2022-08-03T16:04:49.441Z,32.04
2022-08-03T16:08:02.641Z,31.98
2022-08-03T16:10:43.706Z,32.01
2022-08-03T16:13:23.368Z,32.02
2022-08-03T16:16:23.848Z,32.02
2022-08-03T16:19:05.647Z,32.05
2022-08-03T16:21:48.823Z,32.03
2022-08-03T16:24:29.691Z,32.01
2022-08-03T16:27:56.890Z,32.01
2022-08-03T16:30:26.716Z,32.13
2022-08-03T16:33:06.543Z,32.16
2022-08-03T16:35:45.229Z,32.16
2022-08-03T16:38:24.745Z,32.16
2022-08-03T16:41:04.680Z,32.17
2022-08-03T16:43:46.152Z,32.13
2022-08-03T16:46:24.393Z,32.14
2022-08-03T16:49:06.754Z,32.10
2022-08-03T16:51:50.251Z,32.05
2022-08-03T16:54:33.485Z,32.04
2022-08-03T16:57:14.460Z,31.96
2022-08-03T16:59:54.221Z,31.91
2022-08-03T17:02:34.179Z,31.84
2022-08-03T17:05:17.182Z,31.80
2022-08-03T17:08:01.021Z,31.75
2022-08-03T17:10:45.597Z,31.64
2022-08-03T17:13:38.820Z,31.51
2022-08-03T17:16:22.227Z,31.50
2022-08-03T17:19:06.520Z,31.43
2022-08-03T17:21:50.797Z,31.31
2022-08-03T17:24:33.432Z,31.20
2022-08-03T17:27:23.156Z,31.16
2022-08-03T17:30:19.069Z,31.10
2022-08-03T17:33:02.844Z,31.05
2022-08-03T17:35:43.723Z,30.85
2022-08-03T17:38:25.622Z,30.83
2022-08-03T17:41:11.558Z,30.77
2022-08-03T17:44:15.309Z,30.68
2022-08-03T17:46:53.376Z,30.59
2022-08-03T17:49:33.336Z,30.40
2022-08-03T17:52:27.608Z,30.28
2022-08-03T17:55:55.380Z,30.26
2022-08-03T17:58:15.145Z,30.19
2022-08-03T18:04:21.126Z,29.95
2022-08-03T18:07:12.485Z,29.81
2022-08-03T18:10:04.168Z,29.77
2022-08-03T18:12:51.862Z,29.67
2022-08-03T18:15:35.961Z,29.57
2022-08-03T18:18:32.297Z,29.47
2022-08-03T18:21:17.216Z,29.38
2022-08-03T18:24:00.782Z,29.30
2022-08-03T18:26:48.523Z,29.21
2022-08-03T18:29:29.945Z,29.14
2022-08-03T18:35:13.858Z,28.93
2022-08-03T18:37:54.453Z,28.83
2022-08-03T18:40:37.235Z,28.73
2022-08-03T18:43:46.758Z,28.61
2022-08-03T18:46:37.337Z,28.52
2022-08-03T18:49:30.175Z,28.46
2022-08-03T18:52:16.785Z,28.35
2022-08-03T18:55:12.553Z,28.25
2022-08-03T18:58:06.804Z,28.12
2022-08-03T19:00:54.663Z,27.99
2022-08-03T19:03:41.530Z,27.92
2022-08-03T19:06:25.198Z,27.73
2022-08-03T19:09:09.430Z,27.66
2022-08-03T19:12:14.534Z,27.54
2022-08-03T19:15:00.528Z,27.42
2022-08-03T19:17:52.829Z,27.34
2022-08-03T19:20:34.819Z,27.21
2022-08-03T19:23:15.816Z,27.12
2022-08-03T19:25:57.093Z,26.94
2022-08-03T19:28:39.482Z,26.84
2022-08-03T19:31:18.628Z,26.74
2022-08-03T19:34:03.523Z,26.65
2022-08-03T19:36:56.288Z,26.57
2022-08-03T19:39:37.609Z,26.50
2022-08-03T19:42:25.420Z,26.34
2022-08-03T19:45:14.121Z,26.25
2022-08-03T19:47:59.912Z,26.16
2022-08-03T19:50:44.517Z,26.08
2022-08-03T19:53:35.199Z,25.97
2022-08-03T19:56:19.295Z,25.86
2022-08-03T19:59:02.893Z,25.83
2022-08-03T20:01:55.569Z,25.72
2022-08-03T20:04:35.581Z,25.69
2022-08-03T20:07:20.636Z,25.57
2022-08-03T20:10:06.536Z,25.50
2022-08-03T20:12:46.672Z,25.45
2022-08-03T20:15:31.024Z,25.38
2022-08-03T20:18:16.638Z,25.32
2022-08-03T20:21:00.907Z,25.24
2022-08-03T20:24:01.779Z,25.22
2022-08-03T20:26:55.554Z,25.16
2022-08-03T20:30:05.342Z,25.12
2022-08-03T20:32:42.365Z,25.05
2022-08-03T20:35:21.600Z,24.98
2022-08-03T20:37:59.640Z,24.95
2022-08-03T20:40:39.288Z,24.87
2022-08-03T20:43:20.452Z,24.82
2022-08-03T20:46:31.987Z,24.77
2022-08-03T20:49:04.309Z,24.73
2022-08-03T20:52:06.933Z,24.64
2022-08-03T20:54:58.157Z,24.59
2022-08-03T20:57:40.425Z,24.58
2022-08-03T21:00:22.174Z,24.53
2022-08-03T21:03:01.649Z,24.49
2022-08-03T21:05:48.374Z,24.45
2022-08-03T21:08:33.799Z,24.37
2022-08-03T21:11:18.720Z,24.30
2022-08-03T21:12:56.255Z,30.08
2022-08-03T21:12:58.266Z,29.05
2022-08-03T21:14:14.808Z,24.22
2022-08-03T21:16:54.150Z,24.11
2022-08-03T21:19:33.626Z,24.10
2022-08-03T21:22:14.468Z,24.10
2022-08-03T21:24:57.195Z,24.08
2022-08-03T21:27:38.003Z,24.03
2022-08-03T21:30:21.566Z,23.98
2022-08-03T21:33:00.451Z,23.93
2022-08-03T21:36:01.976Z,23.86
2022-08-03T21:38:44.705Z,23.78
2022-08-03T21:41:36.115Z,23.72
2022-08-03T21:44:18.354Z,23.69
2022-08-03T21:47:12.143Z,23.62
2022-08-03T21:50:08.884Z,23.61
2022-08-03T21:52:50.455Z,23.57
2022-08-03T21:55:31.972Z,23.56
2022-08-03T21:58:15.091Z,23.55
2022-08-03T22:00:55.380Z,23.50
2022-08-03T22:03:53.017Z,23.44
2022-08-03T22:06:34.638Z,23.38
2022-08-03T22:09:13.964Z,23.31
2022-08-03T22:11:55.873Z,23.25
2022-08-03T22:14:49.955Z,23.20
2022-08-03T22:17:54.638Z,23.16
2022-08-03T22:20:36.889Z,23.13
2022-08-03T22:23:19.580Z,23.09
2022-08-03T22:26:14.839Z,23.08
2022-08-03T22:28:57.238Z,23.05
2022-08-03T22:31:57.979Z,23.05
2022-08-03T22:34:37.770Z,23.01
2022-08-03T22:37:21.016Z,22.98
2022-08-03T22:40:07.737Z,22.92
2022-08-03T22:42:49.482Z,22.89
2022-08-03T22:46:07.818Z,22.80
2022-08-03T22:48:33.496Z,22.74
2022-08-03T22:51:13.480Z,22.75
2022-08-03T22:53:53.112Z,22.71
2022-08-03T22:56:32.848Z,22.66
2022-08-03T22:59:40.283Z,22.59
2022-08-03T23:02:21.667Z,22.53
2022-08-03T23:05:05.540Z,22.53
2022-08-03T23:07:50.320Z,22.49
2022-08-03T23:10:31.737Z,22.33
2022-08-03T23:13:14.020Z,22.30
2022-08-03T23:15:58.899Z,22.27
2022-08-03T23:18:38.812Z,22.27
2022-08-03T23:21:53.580Z,22.25
2022-08-03T23:24:27.506Z,22.17
2022-08-03T23:27:11.258Z,22.18
2022-08-03T23:30:08.184Z,22.06
2022-08-03T23:32:47.604Z,22.10
2022-08-03T23:36:29.898Z,22.07
2022-08-03T23:39:00.276Z,22.01
2022-08-03T23:41:40.845Z,22.00
2022-08-03T23:44:22.098Z,21.97
2022-08-03T23:47:02.598Z,21.92
2022-08-03T23:49:45.254Z,21.94
2022-08-03T23:52:30.525Z,21.93
2022-08-03T23:55:16.024Z,21.90
2022-08-03T23:58:03.049Z,21.86
